createdAt,value
2023-05-08T00:00:59.397Z,4.65
2023-05-08T00:02:01.568Z,4.43
2023-05-08T00:03:03.746Z,4.68
2023-05-08T00:04:05.719Z,4.95
2023-05-08T00:05:16.350Z,4.32
2023-05-08T00:06:20.235Z,5.00
2023-05-08T00:07:29.477Z,4.22
2023-05-08T00:08:33.973Z,4.30
2023-05-08T00:09:38.629Z,5.03
2023-05-08T00:10:40.566Z,4.32
2023-05-08T00:11:42.145Z,4.45
2023-05-08T00:12:43.690Z,4.65
2023-05-08T00:13:45.329Z,4.60
2023-05-08T00:14:49.909Z,4.82
2023-05-08T00:15:51.436Z,4.57
2023-05-08T00:16:53.253Z,4.57
2023-05-08T00:17:55.370Z,4.68
2023-05-08T00:19:04.158Z,4.85
2023-05-08T00:20:08.042Z,4.63
2023-05-08T00:21:09.732Z,4.90
2023-05-08T00:22:17.485Z,4.82
2023-05-08T00:23:21.448Z,4.88
2023-05-08T00:24:23.033Z,4.93
2023-05-08T00:25:25.071Z,4.47
2023-05-08T00:26:29.729Z,5.05
2023-05-08T00:27:32.182Z,5.00
2023-05-08T00:28:34.233Z,5.35
2023-05-08T00:29:36.029Z,5.28
2023-05-08T00:30:37.617Z,4.80
2023-05-08T00:31:39.189Z,4.90
2023-05-08T00:32:40.744Z,4.63
2023-05-08T00:33:42.257Z,4.65
2023-05-08T00:34:47.789Z,5.10
2023-05-08T00:35:49.272Z,4.93
2023-05-08T00:36:50.737Z,4.80
2023-05-08T00:37:52.800Z,4.70
2023-05-08T00:38:54.754Z,4.80
2023-05-08T00:39:56.322Z,4.70
2023-05-08T00:40:58.267Z,4.78
2023-05-08T00:42:00.169Z,4.65
2023-05-08T00:43:01.885Z,4.93
2023-05-08T00:44:03.531Z,5.03
2023-05-08T00:45:05.558Z,5.00
2023-05-08T00:46:07.510Z,4.93
2023-05-08T00:47:09.913Z,4.90
2023-05-08T00:48:11.478Z,4.95
2023-05-08T00:49:15.106Z,5.28
2023-05-08T00:50:17.676Z,4.90
2023-05-08T00:51:19.521Z,4.32
2023-05-08T00:52:21.254Z,4.30
2023-05-08T00:53:26.813Z,5.22
2023-05-08T00:54:29.501Z,4.95
2023-05-08T00:55:32.734Z,4.95
2023-05-08T00:56:37.404Z,4.88
2023-05-08T00:57:39.311Z,4.75
2023-05-08T00:58:42.147Z,4.85
2023-05-08T00:59:45.559Z,4.80
2023-05-08T01:00:47.756Z,4.88
2023-05-08T01:01:51.237Z,4.80
2023-05-08T01:02:53.177Z,4.85
2023-05-08T01:03:54.921Z,4.63
2023-05-08T01:04:56.618Z,4.88
2023-05-08T01:05:58.635Z,4.75
2023-05-08T01:07:01.955Z,4.95
2023-05-08T01:08:04.432Z,5.00
2023-05-08T01:09:06.780Z,4.30
2023-05-08T01:10:09.091Z,4.88
2023-05-08T01:11:23.554Z,4.63
2023-05-08T01:12:48.288Z,5.15
2023-05-08T01:14:19.550Z,4.45
2023-05-08T01:15:29.722Z,4.47
2023-05-08T01:16:46.598Z,5.00
2023-05-08T01:17:54.278Z,4.60
2023-05-08T01:19:18.718Z,4.20
2023-05-08T01:20:29.255Z,4.60
2023-05-08T01:21:54.037Z,4.80
2023-05-08T01:23:20.288Z,3.78
2023-05-08T01:24:58.014Z,4.35
2023-05-08T01:26:28.991Z,4.13
2023-05-08T01:28:09.972Z,4.40
2023-05-08T01:29:42.576Z,4.43
2023-05-08T01:31:18.707Z,4.60
2023-05-08T01:32:36.533Z,4.32
2023-05-08T01:33:48.655Z,4.55
2023-05-08T01:34:58.967Z,4.53
2023-05-08T01:36:11.219Z,4.68
2023-05-08T01:37:17.205Z,4.28
2023-05-08T01:38:37.234Z,4.53
2023-05-08T01:39:56.184Z,4.38
2023-05-08T01:41:09.939Z,4.95
2023-05-08T01:42:24.631Z,4.60
2023-05-08T01:44:00.653Z,4.55
2023-05-08T01:45:07.816Z,4.40
2023-05-08T01:46:16.820Z,4.10
2023-05-08T01:47:20.713Z,4.70
2023-05-08T01:48:35.214Z,4.70
2023-05-08T01:49:49.401Z,3.83
2023-05-08T01:50:58.536Z,4.60
2023-05-08T01:52:05.799Z,4.57
2023-05-08T01:53:34.182Z,5.05
2023-05-08T01:54:50.181Z,4.68
2023-05-08T01:55:57.112Z,4.32
2023-05-08T01:57:01.065Z,4.45
2023-05-08T01:58:07.653Z,4.65
2023-05-08T01:59:11.631Z,4.55
2023-05-08T02:00:17.487Z,5.20
2023-05-08T02:01:23.680Z,4.43
2023-05-08T02:02:28.743Z,4.88
2023-05-08T02:03:33.653Z,4.53
2023-05-08T02:04:36.900Z,4.70
2023-05-08T02:05:39.262Z,4.75
2023-05-08T02:06:41.636Z,4.90
2023-05-08T02:07:45.721Z,4.40
2023-05-08T02:08:47.852Z,4.70
2023-05-08T02:09:51.165Z,4.40
2023-05-08T02:10:54.232Z,4.85
2023-05-08T02:11:56.993Z,4.72
2023-05-08T02:13:01.638Z,4.60
2023-05-08T02:14:03.943Z,4.50
2023-05-08T02:15:08.367Z,4.63
2023-05-08T02:16:11.833Z,4.78
2023-05-08T02:17:16.647Z,5.22
2023-05-08T02:18:23.727Z,5.00
2023-05-08T02:19:28.406Z,4.68
2023-05-08T02:20:32.401Z,4.43
2023-05-08T02:21:35.515Z,4.72
2023-05-08T02:22:37.741Z,4.70
2023-05-08T02:23:41.178Z,4.80
2023-05-08T02:24:45.453Z,4.80
2023-05-08T02:25:47.317Z,4.72
2023-05-08T02:26:50.483Z,4.57
2023-05-08T02:27:54.027Z,4.53
2023-05-08T02:28:56.796Z,4.85
2023-05-08T02:30:00.645Z,4.95
2023-05-08T02:31:03.182Z,4.70
2023-05-08T02:32:07.796Z,5.15
2023-05-08T02:33:12.062Z,4.85
2023-05-08T02:34:14.341Z,4.63
2023-05-08T02:35:19.451Z,4.40
2023-05-08T02:36:22.897Z,4.00
2023-05-08T02:37:26.802Z,4.85
2023-05-08T02:38:32.815Z,4.28
2023-05-08T02:39:37.006Z,4.65
2023-05-08T02:40:44.513Z,4.90
2023-05-08T02:41:46.440Z,4.65
2023-05-08T02:42:48.993Z,4.70
2023-05-08T02:43:52.235Z,4.88
2023-05-08T02:44:54.170Z,5.10
2023-05-08T02:46:16.288Z,4.95
2023-05-08T02:47:43.825Z,4.57
2023-05-08T02:48:57.975Z,4.57
2023-05-08T02:50:22.893Z,4.78
2023-05-08T02:51:39.504Z,4.60
2023-05-08T02:52:53.316Z,4.70
2023-05-08T02:54:04.782Z,4.70
2023-05-08T02:55:22.019Z,4.93
2023-05-08T02:56:38.306Z,4.85
2023-05-08T02:57:47.207Z,4.60
2023-05-08T02:59:20.407Z,4.63
2023-05-08T03:00:27.892Z,4.53
2023-05-08T03:01:36.960Z,5.05
2023-05-08T03:03:49.993Z,4.95
2023-05-08T03:04:55.705Z,4.50
2023-05-08T03:06:00.868Z,4.82
2023-05-08T03:07:04.664Z,4.72
2023-05-08T03:08:18.901Z,5.07
2023-05-08T03:09:23.221Z,5.00
2023-05-08T03:10:29.526Z,5.00
2023-05-08T03:11:40.589Z,4.85
2023-05-08T03:12:52.214Z,4.40
2023-05-08T03:13:58.991Z,4.65
2023-05-08T03:15:07.246Z,5.35
2023-05-08T03:16:13.509Z,5.35
2023-05-08T03:17:17.728Z,4.78
2023-05-08T03:18:23.377Z,5.30
2023-05-08T03:19:34.554Z,8.10
2023-05-08T03:20:40.992Z,11.52
2023-05-08T03:21:44.787Z,13.73
2023-05-08T03:22:48.405Z,7.93
2023-05-08T03:23:52.383Z,7.75
2023-05-08T03:24:57.607Z,7.22
2023-05-08T03:26:01.096Z,5.65
2023-05-08T03:27:03.471Z,4.95
2023-05-08T03:28:06.343Z,5.20
2023-05-08T03:31:12.748Z,4.93
2023-05-08T03:32:15.058Z,4.50
2023-05-08T03:33:17.950Z,4.78
2023-05-08T03:35:22.940Z,4.78
2023-05-08T03:36:27.001Z,4.40
2023-05-08T03:37:28.860Z,4.50
2023-05-08T03:38:30.632Z,4.97
2023-05-08T03:39:32.527Z,5.13
2023-05-08T03:40:44.931Z,5.00
2023-05-08T03:41:48.120Z,4.70
2023-05-08T03:42:51.073Z,5.18
2023-05-08T03:44:56.274Z,5.10
2023-05-08T03:47:00.955Z,4.53
2023-05-08T03:48:05.864Z,4.90
2023-05-08T03:49:08.888Z,5.03
2023-05-08T03:50:10.805Z,5.10
2023-05-08T03:51:12.878Z,5.28
2023-05-08T03:52:15.504Z,5.30
2023-05-08T03:53:17.156Z,4.80
2023-05-08T03:54:18.638Z,4.88
2023-05-08T03:55:20.388Z,4.68
2023-05-08T03:56:23.124Z,5.00
2023-05-08T03:57:31.530Z,5.20
2023-05-08T03:58:39.771Z,4.75
2023-05-08T03:59:52.425Z,4.72
2023-05-08T04:01:18.339Z,5.05
2023-05-08T04:02:36.713Z,5.20
2023-05-08T04:03:53.325Z,4.88
2023-05-08T04:05:22.593Z,5.03
2023-05-08T04:06:32.979Z,5.00
2023-05-08T04:07:50.904Z,4.43
2023-05-08T04:09:23.307Z,4.72
2023-05-08T04:10:51.384Z,4.60
2023-05-08T04:12:14.341Z,4.63
2023-05-08T04:13:22.737Z,4.82
2023-05-08T04:14:27.647Z,5.18
2023-05-08T04:15:31.499Z,5.18
2023-05-08T04:16:39.203Z,4.82
2023-05-08T04:17:50.914Z,5.15
2023-05-08T04:19:01.580Z,5.10
2023-05-08T04:20:07.019Z,5.00
2023-05-08T04:21:10.794Z,5.07
2023-05-08T04:22:13.177Z,4.85
2023-05-08T04:23:20.343Z,5.20
2023-05-08T04:24:23.643Z,5.10
2023-05-08T04:25:29.574Z,5.05
2023-05-08T04:26:31.932Z,5.10
2023-05-08T04:27:34.809Z,5.28
2023-05-08T04:29:38.266Z,4.65
2023-05-08T04:30:40.918Z,5.00
2023-05-08T04:31:42.781Z,5.20
2023-05-08T04:32:46.649Z,5.50
2023-05-08T04:33:49.327Z,5.38
2023-05-08T04:34:51.334Z,5.45
2023-05-08T04:35:53.528Z,5.10
2023-05-08T04:36:55.196Z,4.90
2023-05-08T04:37:56.836Z,5.18
2023-05-08T04:39:01.232Z,5.43
2023-05-08T04:40:04.885Z,5.60
2023-05-08T04:41:07.420Z,5.25
2023-05-08T04:42:08.873Z,5.57
2023-05-08T04:43:10.557Z,5.60
2023-05-08T04:44:12.946Z,5.45
2023-05-08T04:45:14.880Z,5.60
2023-05-08T04:46:16.511Z,5.43
2023-05-08T04:47:18.446Z,5.30
2023-05-08T04:48:22.717Z,6.30
2023-05-08T04:49:24.302Z,5.60
2023-05-08T04:50:25.800Z,5.57
2023-05-08T04:51:27.377Z,5.82
2023-05-08T04:52:28.804Z,6.60
2023-05-08T04:53:30.310Z,5.75
2023-05-08T04:54:32.068Z,6.00
2023-05-08T04:55:33.489Z,6.47
2023-05-08T04:56:35.255Z,6.07
2023-05-08T04:57:36.814Z,5.65
2023-05-08T04:58:38.451Z,5.78
2023-05-08T04:59:40.257Z,6.30
2023-05-08T05:00:41.825Z,6.15
2023-05-08T05:01:43.496Z,6.18
2023-05-08T05:02:47.227Z,6.03
2023-05-08T05:03:48.868Z,6.32
2023-05-08T05:04:51.188Z,5.82
2023-05-08T05:06:00.873Z,5.35
2023-05-08T05:07:03.489Z,5.82
2023-05-08T05:08:05.118Z,5.50
2023-05-08T05:09:06.971Z,6.60
2023-05-08T05:10:09.029Z,6.25
2023-05-08T05:11:10.558Z,6.13
2023-05-08T05:12:12.170Z,6.65
2023-05-08T05:13:13.804Z,5.63
2023-05-08T05:14:15.370Z,5.72
2023-05-08T05:15:16.979Z,5.70
2023-05-08T05:16:18.570Z,6.05
2023-05-08T05:17:20.494Z,6.10
2023-05-08T05:18:22.191Z,5.70
2023-05-08T05:19:24.208Z,6.05
2023-05-08T05:20:25.693Z,5.50
2023-05-08T05:21:27.935Z,5.65
2023-05-08T05:22:29.380Z,5.97
2023-05-08T05:23:31.132Z,5.80
2023-05-08T05:24:34.730Z,6.40
2023-05-08T05:25:38.890Z,6.43
2023-05-08T05:26:41.228Z,5.55
2023-05-08T05:27:43.262Z,6.05
2023-05-08T05:28:46.438Z,5.88
2023-05-08T05:29:48.097Z,6.13
2023-05-08T05:30:49.967Z,6.03
2023-05-08T05:31:51.807Z,6.43
2023-05-08T05:32:54.816Z,5.78
2023-05-08T05:35:11.576Z,5.70
2023-05-08T05:36:13.370Z,5.75
2023-05-08T05:37:25.330Z,5.53
2023-05-08T05:38:31.889Z,5.20
2023-05-08T05:39:35.868Z,5.57
2023-05-08T05:42:04.388Z,6.05
2023-05-08T05:43:06.120Z,5.80
2023-05-08T05:44:16.038Z,5.85
2023-05-08T05:45:23.672Z,5.88
2023-05-08T05:46:42.736Z,5.90
2023-05-08T05:47:54.275Z,5.13
2023-05-08T05:49:01.662Z,5.88
2023-05-08T05:50:06.738Z,5.93
2023-05-08T05:51:08.356Z,5.80
2023-05-08T05:52:14.285Z,6.07
2023-05-08T05:53:18.306Z,5.70
2023-05-08T05:55:49.432Z,5.72
2023-05-08T05:56:54.885Z,5.75
2023-05-08T05:57:59.137Z,5.63
2023-05-08T05:59:06.530Z,5.80
2023-05-08T06:00:09.054Z,6.20
2023-05-08T06:01:29.390Z,8.52
2023-05-08T06:03:49.786Z,11.82
2023-05-08T06:04:52.302Z,6.90
2023-05-08T06:05:56.651Z,5.88
2023-05-08T06:07:10.567Z,5.57
2023-05-08T06:08:22.755Z,5.88
2023-05-08T06:09:29.862Z,6.13
2023-05-08T06:11:25.429Z,6.05
2023-05-08T06:15:47.626Z,5.63
2023-05-08T06:17:11.948Z,6.00
2023-05-08T06:18:15.984Z,5.80
2023-05-08T06:19:33.316Z,5.45
2023-05-08T06:20:56.665Z,6.15
2023-05-08T06:21:58.264Z,5.90
2023-05-08T06:22:59.808Z,5.57
2023-05-08T06:24:01.762Z,5.90
2023-05-08T06:25:17.089Z,6.07
2023-05-08T06:27:37.346Z,6.20
2023-05-08T06:28:48.407Z,5.40
2023-05-08T06:29:58.836Z,6.05
2023-05-08T06:31:03.005Z,6.13
2023-05-08T06:32:04.746Z,6.10
2023-05-08T06:33:13.524Z,5.70
2023-05-08T06:34:19.675Z,5.75
2023-05-08T06:35:24.337Z,5.88
2023-05-08T06:36:28.521Z,5.43
2023-05-08T06:37:33.690Z,5.95
2023-05-08T06:38:41.678Z,6.00
2023-05-08T06:39:50.509Z,5.85
2023-05-08T06:40:56.381Z,5.57
2023-05-08T06:41:57.869Z,5.70
2023-05-08T06:42:59.794Z,5.00
2023-05-08T06:44:02.434Z,5.90
2023-05-08T06:45:04.555Z,6.28
2023-05-08T06:46:09.097Z,5.72
2023-05-08T06:47:16.837Z,6.30
2023-05-08T06:48:23.579Z,5.63
2023-05-08T06:49:44.309Z,6.10
2023-05-08T06:50:46.937Z,5.97
2023-05-08T06:51:57.254Z,6.10
2023-05-08T06:53:01.890Z,6.50
2023-05-08T06:54:11.028Z,6.65
2023-05-08T06:55:17.529Z,5.95
2023-05-08T06:56:19.018Z,5.45
2023-05-08T06:58:18.217Z,5.63
2023-05-08T06:59:26.284Z,6.43
2023-05-08T07:00:28.218Z,6.57
2023-05-08T07:01:31.894Z,7.20
2023-05-08T07:02:36.732Z,6.05
2023-05-08T07:03:44.253Z,5.97
2023-05-08T07:04:45.831Z,6.43
2023-05-08T07:05:50.152Z,5.97
2023-05-08T07:06:54.724Z,5.47
2023-05-08T07:07:59.326Z,5.72
2023-05-08T07:09:03.283Z,6.03
2023-05-08T07:10:12.256Z,5.18
2023-05-08T07:11:13.782Z,6.00
2023-05-08T07:12:18.450Z,6.13
2023-05-08T07:13:25.041Z,6.13
2023-05-08T07:14:27.834Z,5.82
2023-05-08T07:15:34.450Z,5.97
2023-05-08T07:16:36.451Z,4.72
2023-05-08T07:17:38.085Z,5.55
2023-05-08T07:18:47.548Z,5.90
2023-05-08T07:19:51.826Z,6.13
2023-05-08T07:20:53.621Z,6.65
2023-05-08T07:22:09.141Z,6.28
2023-05-08T07:23:12.742Z,6.10
2023-05-08T07:24:24.486Z,6.40
2023-05-08T07:25:29.363Z,6.35
2023-05-08T07:26:30.937Z,6.07
2023-05-08T07:27:37.909Z,5.63
2023-05-08T07:28:41.458Z,5.45
2023-05-08T07:29:55.218Z,5.70
2023-05-08T07:31:10.310Z,5.72
2023-05-08T07:32:21.937Z,5.90
2023-05-08T07:33:26.366Z,5.82
2023-05-08T07:34:30.266Z,5.95
2023-05-08T07:35:33.916Z,5.90
2023-05-08T07:36:35.481Z,5.82
2023-05-08T07:37:41.687Z,6.57
2023-05-08T07:38:44.150Z,6.00
2023-05-08T07:39:49.684Z,5.75
2023-05-08T07:41:02.946Z,5.50
2023-05-08T07:42:07.393Z,6.05
2023-05-08T07:43:15.180Z,6.80
2023-05-08T07:44:26.110Z,6.22
2023-05-08T07:45:32.979Z,5.78
2023-05-08T07:46:45.307Z,5.72
2023-05-08T07:47:59.318Z,6.15
2023-05-08T07:49:04.367Z,6.10
2023-05-08T07:50:11.307Z,5.70
2023-05-08T07:51:13.749Z,5.63
2023-05-08T07:52:15.850Z,5.78
2023-05-08T07:53:18.246Z,6.05
2023-05-08T07:54:19.753Z,6.40
2023-05-08T07:55:23.972Z,6.80
2023-05-08T07:56:28.438Z,6.78
2023-05-08T07:57:36.959Z,7.25
2023-05-08T07:58:38.523Z,6.20
2023-05-08T07:59:39.982Z,6.30
2023-05-08T08:00:43.524Z,6.32
2023-05-08T08:01:47.590Z,6.10
2023-05-08T08:02:52.449Z,6.15
2023-05-08T08:03:54.544Z,6.03
2023-05-08T08:04:58.946Z,6.03
2023-05-08T08:06:00.384Z,5.80
2023-05-08T08:07:06.443Z,5.53
2023-05-08T08:08:08.254Z,5.03
2023-05-08T08:09:20.732Z,5.85
2023-05-08T08:10:24.681Z,5.50
2023-05-08T08:11:31.395Z,5.85
2023-05-08T08:12:34.423Z,5.75
2023-05-08T08:15:00.454Z,5.70
2023-05-08T08:16:07.717Z,5.90
2023-05-08T08:17:29.192Z,5.75
2023-05-08T08:18:36.717Z,5.38
2023-05-08T08:19:40.887Z,5.82
2023-05-08T08:20:45.588Z,5.72
2023-05-08T08:21:52.050Z,5.70
2023-05-08T08:23:13.238Z,6.03
2023-05-08T08:25:31.589Z,5.55
2023-05-08T08:26:33.353Z,5.63
2023-05-08T08:27:44.010Z,5.70
2023-05-08T08:28:55.415Z,5.72
2023-05-08T08:30:15.171Z,6.40
2023-05-08T08:32:37.911Z,5.63
2023-05-08T08:33:39.591Z,6.00
2023-05-08T08:34:42.504Z,5.82
2023-05-08T08:36:56.774Z,5.70
2023-05-08T08:37:59.237Z,5.82
2023-05-08T08:40:15.917Z,5.60
2023-05-08T08:41:24.271Z,5.57
2023-05-08T08:42:47.345Z,5.28
2023-05-08T08:44:17.943Z,5.93
2023-05-08T08:45:22.193Z,6.18
2023-05-08T08:46:28.623Z,6.22
2023-05-08T08:47:37.699Z,5.93
2023-05-08T08:48:47.512Z,6.40
2023-05-08T08:49:53.975Z,6.30
2023-05-08T08:51:00.145Z,6.50
2023-05-08T08:52:43.521Z,6.72
2023-05-08T08:54:44.237Z,5.80
2023-05-08T08:55:49.742Z,5.88
2023-05-08T08:57:19.688Z,6.38
2023-05-08T08:58:54.654Z,6.35
2023-05-08T09:00:09.756Z,6.43
2023-05-08T09:02:20.084Z,6.20
2023-05-08T09:03:27.319Z,6.18
2023-05-08T09:04:51.732Z,6.70
2023-05-08T09:05:57.118Z,6.45
2023-05-08T09:07:05.379Z,5.97
2023-05-08T09:08:08.246Z,6.75
2023-05-08T09:10:15.917Z,5.70
2023-05-08T09:12:35.266Z,6.20
2023-05-08T09:13:39.444Z,6.60
2023-05-08T09:14:47.072Z,6.50
2023-05-08T09:15:50.551Z,5.97
2023-05-08T09:16:57.610Z,6.03
2023-05-08T09:18:02.684Z,6.15
2023-05-08T09:19:04.810Z,6.55
2023-05-08T09:20:18.337Z,6.43
2023-05-08T09:21:24.231Z,6.30
2023-05-08T09:22:26.512Z,5.75
2023-05-08T09:23:31.263Z,6.43
2023-05-08T09:24:58.876Z,6.43
2023-05-08T09:26:00.352Z,6.45
2023-05-08T09:27:02.047Z,6.57
2023-05-08T09:28:18.198Z,6.85
2023-05-08T09:29:24.392Z,7.63
2023-05-08T09:30:28.239Z,6.95
2023-05-08T09:31:47.663Z,7.07
2023-05-08T09:32:52.582Z,6.03
2023-05-08T09:33:59.330Z,6.32
2023-05-08T09:35:04.134Z,6.18
2023-05-08T09:36:05.982Z,6.65
2023-05-08T09:37:08.628Z,6.47
2023-05-08T09:38:44.140Z,6.43
2023-05-08T09:39:50.187Z,6.20
2023-05-08T09:41:16.442Z,6.30
2023-05-08T09:42:18.331Z,6.40
2023-05-08T09:43:32.664Z,6.47
2023-05-08T09:44:48.261Z,6.15
2023-05-08T09:45:49.835Z,6.55
2023-05-08T09:46:54.927Z,6.22
2023-05-08T09:47:56.848Z,6.20
2023-05-08T09:49:01.432Z,8.10
2023-05-08T09:50:10.421Z,6.28
2023-05-08T09:51:12.099Z,6.80
2023-05-08T09:52:15.964Z,6.50
2023-05-08T09:53:17.651Z,6.13
2023-05-08T09:54:21.853Z,6.65
2023-05-08T09:55:23.437Z,5.72
2023-05-08T09:56:52.464Z,6.68
2023-05-08T09:58:03.333Z,6.40
2023-05-08T09:59:12.320Z,6.68
2023-05-08T10:01:40.852Z,5.88
2023-05-08T10:03:17.471Z,6.07
2023-05-08T10:04:33.145Z,5.90
2023-05-08T10:05:37.419Z,6.00
2023-05-08T10:06:41.908Z,6.28
2023-05-08T10:07:46.822Z,6.05
2023-05-08T10:08:48.511Z,5.85
2023-05-08T10:10:11.920Z,6.20
2023-05-08T10:11:19.808Z,5.30
2023-05-08T13:41:34.924Z,5.75
2023-05-08T13:42:37.307Z,5.90
2023-05-08T13:43:51.221Z,5.65
2023-05-08T13:44:58.620Z,5.30
2023-05-08T13:46:12.884Z,5.68
2023-05-08T13:47:17.465Z,5.65
2023-05-08T13:48:28.283Z,5.80
2023-05-08T13:49:46.467Z,5.47
2023-05-08T13:52:44.566Z,5.88
2023-05-08T13:53:46.457Z,5.60
2023-05-08T13:55:12.503Z,5.55
2023-05-08T13:56:16.590Z,5.68
2023-05-08T13:57:33.523Z,5.57
2023-05-08T13:58:38.033Z,5.28
2023-05-08T13:59:43.152Z,5.30
2023-05-08T14:00:50.173Z,5.30
2023-05-08T14:02:20.501Z,5.50
2023-05-08T14:03:26.369Z,5.60
2023-05-08T14:04:31.023Z,5.65
2023-05-08T14:06:02.781Z,5.40
2023-05-08T14:07:04.667Z,5.43
2023-05-08T14:08:08.265Z,6.03
2023-05-08T14:09:09.996Z,5.45
2023-05-08T14:10:24.910Z,5.38
2023-05-08T14:11:36.995Z,5.53
2023-05-08T14:12:48.121Z,6.00
2023-05-08T14:13:55.206Z,5.43
2023-05-08T14:15:13.690Z,5.70
2023-05-08T14:16:39.612Z,5.82
2023-05-08T14:17:46.835Z,5.20
2023-05-08T14:18:48.527Z,5.80
2023-05-08T14:19:50.076Z,5.68
2023-05-08T14:20:57.646Z,5.20
2023-05-08T14:22:02.653Z,6.25
2023-05-08T14:23:14.400Z,5.63
2023-05-08T14:24:23.704Z,5.63
2023-05-08T14:25:25.241Z,5.65
2023-05-08T14:26:26.989Z,5.53
2023-05-08T14:27:28.567Z,6.65
2023-05-08T14:28:32.909Z,6.57
2023-05-08T14:29:50.607Z,6.45
2023-05-08T14:30:52.082Z,6.10
2023-05-08T14:31:56.259Z,5.50
2023-05-08T14:33:19.511Z,6.03
2023-05-08T14:34:30.014Z,5.47
2023-05-08T14:35:37.089Z,6.10
2023-05-08T14:36:38.703Z,5.75
2023-05-08T14:37:46.401Z,5.75
2023-05-08T14:38:48.157Z,5.97
2023-05-08T14:40:07.787Z,8.02
2023-05-08T14:41:18.191Z,5.22
2023-05-08T14:42:23.449Z,5.82
2023-05-08T14:43:28.973Z,5.95
2023-05-08T14:44:44.237Z,6.40
2023-05-08T14:45:50.074Z,7.65
2023-05-08T14:48:20.344Z,6.18
2023-05-08T14:51:03.561Z,5.70
2023-05-08T14:52:19.901Z,5.95
2023-05-08T14:53:30.849Z,6.72
2023-05-08T14:54:35.581Z,5.53
2023-05-08T14:55:37.608Z,5.93
2023-05-08T14:56:47.042Z,6.18
2023-05-08T14:57:54.949Z,6.55
2023-05-08T14:58:56.462Z,5.57
2023-05-08T15:00:01.128Z,6.57
2023-05-08T15:01:02.666Z,6.95
2023-05-08T15:02:13.047Z,6.07
2023-05-08T15:03:14.646Z,6.22
2023-05-08T15:04:16.450Z,5.78
2023-05-08T15:05:45.954Z,5.38
2023-05-08T15:06:50.536Z,5.60
2023-05-08T15:07:56.613Z,5.70
2023-05-08T15:09:00.851Z,5.32
2023-05-08T15:10:04.037Z,5.35
2023-05-08T15:11:05.620Z,5.20
2023-05-08T15:12:07.298Z,5.60
2023-05-08T15:13:08.910Z,6.07
2023-05-08T15:14:13.489Z,5.75
2023-05-08T15:15:17.463Z,5.70
2023-05-08T15:16:24.867Z,5.45
2023-05-08T15:17:27.529Z,5.45
2023-05-08T15:18:29.044Z,5.20
2023-05-08T15:19:48.317Z,5.38
2023-05-08T15:20:57.249Z,5.55
2023-05-08T15:23:03.030Z,4.85
2023-05-08T15:24:04.880Z,5.40
2023-05-08T15:25:09.816Z,5.20
2023-05-08T15:26:14.259Z,5.50
2023-05-08T15:27:19.495Z,5.00
2023-05-08T15:28:28.665Z,5.47
2023-05-08T15:29:30.469Z,5.10
2023-05-08T15:30:38.072Z,5.63
2023-05-08T15:31:42.595Z,5.10
2023-05-08T15:32:44.215Z,5.43
2023-05-08T15:33:48.535Z,4.80
2023-05-08T15:34:51.947Z,5.32
2023-05-08T15:35:56.299Z,5.50
2023-05-08T15:37:00.773Z,5.45
2023-05-08T15:38:09.314Z,5.38
2023-05-08T15:39:10.866Z,4.35
2023-05-08T15:40:12.766Z,5.57
2023-05-08T15:41:15.582Z,5.18
2023-05-08T15:42:20.800Z,4.80
2023-05-08T15:43:22.318Z,4.90
2023-05-08T15:44:26.456Z,4.82
2023-05-08T15:45:28.351Z,5.20
2023-05-08T15:46:29.812Z,4.93
2023-05-08T15:47:31.485Z,4.38
2023-05-08T15:48:33.365Z,5.22
2023-05-08T15:49:38.082Z,5.05
2023-05-08T15:50:43.640Z,4.88
2023-05-08T15:51:48.267Z,4.75
2023-05-08T15:52:52.992Z,6.57
2023-05-08T15:53:57.821Z,6.30
2023-05-08T15:55:02.477Z,5.97
2023-05-08T15:56:07.712Z,7.63
2023-05-08T15:57:09.253Z,5.13
2023-05-08T15:58:10.803Z,4.90
2023-05-08T15:59:12.318Z,4.10
2023-05-08T16:00:14.352Z,4.43
2023-05-08T16:01:16.818Z,4.25
2023-05-08T16:02:25.380Z,4.82
2023-05-08T16:03:28.714Z,4.60
2023-05-08T16:04:30.794Z,4.88
2023-05-08T16:05:35.833Z,4.63
2023-05-08T16:06:37.567Z,4.90
2023-05-08T16:07:42.735Z,5.07
2023-05-08T16:08:44.215Z,5.10
2023-05-08T16:09:46.059Z,5.05
2023-05-08T16:10:48.484Z,4.30
2023-05-08T16:11:50.039Z,4.80
2023-05-08T16:12:52.029Z,4.20
2023-05-08T16:13:53.498Z,4.75
2023-05-08T16:14:55.052Z,4.10
2023-05-08T16:16:03.715Z,4.10
2023-05-08T16:17:07.264Z,4.18
2023-05-08T16:18:09.038Z,3.80
2023-05-08T16:19:10.924Z,4.70
2023-05-08T16:20:12.820Z,4.80
2023-05-08T16:21:21.551Z,4.30
2023-05-08T16:22:27.844Z,7.18
2023-05-08T16:23:30.896Z,4.72
2023-05-08T16:24:33.449Z,4.10
2023-05-08T16:25:35.106Z,4.25
2023-05-08T16:26:36.618Z,4.20
2023-05-08T16:27:38.520Z,4.05
2023-05-08T16:28:40.044Z,4.68
2023-05-08T16:29:41.481Z,6.07
2023-05-08T16:30:43.029Z,5.00
2023-05-08T16:31:44.640Z,5.38
2023-05-08T16:32:47.895Z,8.93
2023-05-08T16:33:49.487Z,4.55
2023-05-08T16:34:51.165Z,3.70
2023-05-08T16:35:54.518Z,3.75
2023-05-08T16:36:56.057Z,3.40
2023-05-08T16:37:57.877Z,3.50
2023-05-08T16:39:02.631Z,3.20
2023-05-08T16:40:08.742Z,3.40
2023-05-08T16:41:10.350Z,3.05
2023-05-08T16:42:14.348Z,3.28
2023-05-08T16:43:17.754Z,3.30
2023-05-08T16:44:19.364Z,3.42
2023-05-08T16:45:20.992Z,3.22
2023-05-08T16:46:29.987Z,3.35
2023-05-08T16:47:33.052Z,3.50
2023-05-08T16:48:34.986Z,3.20
2023-05-08T16:49:37.866Z,3.40
2023-05-08T16:51:41.360Z,3.08
2023-05-08T16:52:45.886Z,3.30
2023-05-08T16:53:47.714Z,3.40
2023-05-08T16:54:49.480Z,3.33
2023-05-08T16:55:51.336Z,3.25
2023-05-08T16:56:52.897Z,2.97
2023-05-08T16:57:57.260Z,3.72
2023-05-08T16:58:58.812Z,3.10
2023-05-08T17:00:00.488Z,3.15
2023-05-08T17:01:03.706Z,3.40
2023-05-08T17:02:05.621Z,3.53
2023-05-08T17:03:07.265Z,3.10
2023-05-08T17:04:09.170Z,3.35
2023-05-08T17:05:10.756Z,2.63
2023-05-08T17:06:22.138Z,3.45
2023-05-08T17:07:24.016Z,3.30
2023-05-08T17:08:25.613Z,3.50
2023-05-08T17:09:30.391Z,3.60
2023-05-08T17:10:37.109Z,2.90
2023-05-08T17:11:41.855Z,2.90
2023-05-08T17:12:43.342Z,3.20
2023-05-08T17:13:46.218Z,2.88
2023-05-08T17:15:49.804Z,3.10
2023-05-08T17:16:51.905Z,3.08
2023-05-08T17:17:53.654Z,3.50
2023-05-08T17:18:55.570Z,3.40
2023-05-08T17:19:57.624Z,3.20
2023-05-08T17:21:02.386Z,3.10
2023-05-08T17:22:08.023Z,3.40
2023-05-08T17:23:10.107Z,3.30
2023-05-08T17:24:11.905Z,2.60
2023-05-08T17:25:13.843Z,3.38
2023-05-08T17:26:15.666Z,3.67
2023-05-08T17:27:19.985Z,3.90
2023-05-08T17:28:21.432Z,3.88
2023-05-08T17:29:24.919Z,3.60
2023-05-08T17:30:28.987Z,3.85
2023-05-08T17:31:30.609Z,3.65
2023-05-08T17:32:35.302Z,3.47
2023-05-08T17:33:38.861Z,3.53
2023-05-08T17:34:40.681Z,7.43
2023-05-08T17:35:42.338Z,7.53
2023-05-08T17:36:44.414Z,4.00
2023-05-08T17:37:46.116Z,3.40
2023-05-08T17:38:47.685Z,3.53
2023-05-08T17:39:49.166Z,5.03
2023-05-08T17:40:50.716Z,3.47
2023-05-08T17:41:52.840Z,4.88
2023-05-08T17:42:54.456Z,3.22
2023-05-08T17:43:56.097Z,3.30
2023-05-08T17:45:00.821Z,3.70
2023-05-08T17:46:02.429Z,3.80
2023-05-08T17:47:04.231Z,3.60
2023-05-08T17:48:05.910Z,3.47
2023-05-08T17:49:07.701Z,3.35
2023-05-08T17:50:09.805Z,3.65
2023-05-08T17:51:14.828Z,3.50
2023-05-08T17:52:16.430Z,3.38
2023-05-08T17:53:18.003Z,3.53
2023-05-08T17:54:19.516Z,2.83
2023-05-08T17:55:21.055Z,3.47
2023-05-08T17:56:23.736Z,3.10
2023-05-08T17:57:25.269Z,2.85
2023-05-08T17:58:26.913Z,3.25
2023-05-08T17:59:29.892Z,3.20
2023-05-08T18:00:31.837Z,3.10
2023-05-08T18:01:33.858Z,3.28
2023-05-08T18:02:35.672Z,3.35
2023-05-08T18:03:37.553Z,3.47
2023-05-08T18:04:39.030Z,3.00
2023-05-08T18:05:40.693Z,3.30
2023-05-08T18:06:43.390Z,3.30
2023-05-08T18:07:44.933Z,3.10
2023-05-08T18:08:46.817Z,2.72
2023-05-08T18:09:48.336Z,3.30
2023-05-08T18:10:49.833Z,3.28
2023-05-08T18:11:51.350Z,3.05
2023-05-08T18:12:52.936Z,3.10
2023-05-08T18:13:54.636Z,3.47
2023-05-08T18:14:56.146Z,3.50
2023-05-08T18:15:58.231Z,3.63
2023-05-08T18:17:00.247Z,3.63
2023-05-08T18:18:02.485Z,4.18
2023-05-08T18:19:04.030Z,3.83
2023-05-08T18:20:07.867Z,4.30
2023-05-08T18:21:09.974Z,3.80
2023-05-08T18:22:12.149Z,3.70
2023-05-08T18:23:13.639Z,3.53
2023-05-08T18:24:15.693Z,3.65
2023-05-08T18:25:17.325Z,3.38
2023-05-08T18:26:18.908Z,3.30
2023-05-08T18:27:20.439Z,3.40
2023-05-08T18:28:21.926Z,3.38
2023-05-08T18:29:23.881Z,3.53
2023-05-08T18:30:27.571Z,3.53
2023-05-08T18:31:29.544Z,3.53
2023-05-08T18:32:31.115Z,3.65
2023-05-08T18:33:32.627Z,3.67
2023-05-08T18:34:37.235Z,3.38
2023-05-08T18:35:38.769Z,3.47
2023-05-08T18:36:40.325Z,3.38
2023-05-08T18:37:41.865Z,3.53
2023-05-08T18:38:43.542Z,3.60
2023-05-08T18:39:45.098Z,3.67
2023-05-08T18:40:46.749Z,3.60
2023-05-08T18:41:48.453Z,3.90
2023-05-08T18:42:50.050Z,3.63
2023-05-08T18:43:52.672Z,4.05
2023-05-08T18:44:56.006Z,3.45
2023-05-08T18:45:59.282Z,3.30
2023-05-08T18:47:01.807Z,3.53
2023-05-08T18:48:03.610Z,3.40